Time;durP1;ratioP1;P1;durP2;ratioP2;P2;SDS_P1;SDS_P2;PMS_P1;PMS_P2;Temp;Humidity;BMP_temperature;BMP_pressure;BME280_temperature;BME280_humidity;BME280_pressure;Samples;Min_cycle;Max_cycle;Signal;HPM_P1;HPM_P2
2021/12/21 00:02:10;;;;;;;4.28;1.35;;;;;;;;;;6277379;22;20148;-61
2021/12/21 00:04:36;;;;;;;6.43;1.40;;;;;;;;;;6277734;22;20171;-61
2021/12/21 00:07:04;;;;;;;2.17;0.95;;;;;;;;;;6277350;22;20215;-61
2021/12/21 00:09:30;;;;;;;5.35;1.40;;;;;;;;;;6277504;22;20151;-60
2021/12/21 00:11:58;;;;;;;7.03;1.67;;;;;;;;;;6277617;22;20140;-61
2021/12/21 00:14:36;;;;;;;6.57;1.70;;;;;;;;;;6277547;22;20166;-61
2021/12/21 00:22:08;;;;;;;5.40;1.50;;;;;;;;;;6287923;22;20551;-61
2021/12/21 00:24:45;;;;;;;6.70;1.63;;;;;;;;;;6277186;22;20166;-61
2021/12/21 00:27:12;;;;;;;8.85;1.75;;;;;;;;;;6277789;22;20218;-60
2021/12/21 00:29:38;;;;;;;5.57;1.65;;;;;;;;;;6277333;22;20171;-61
2021/12/21 00:32:04;;;;;;;4.55;1.63;;;;;;;;;;6277048;22;20147;-57
2021/12/21 00:34:31;;;;;;;7.82;1.95;;;;;;;;;;6277373;22;20148;-62
2021/12/21 00:36:57;;;;;;;2.17;1.35;;;;;;;;;;6276907;22;20554;-61
2021/12/21 00:39:23;;;;;;;5.72;1.92;;;;;;;;;;6277523;22;20619;-62
2021/12/21 00:41:49;;;;;;;6.10;1.58;;;;;;;;;;6276434;22;20438;-61
2021/12/21 00:44:15;;;;;;;7.22;1.60;;;;;;;;;;6276920;22;20171;-60
2021/12/21 00:46:43;;;;;;;7.82;1.92;;;;;;;;;;6276923;22;20140;-60
2021/12/21 00:49:14;;;;;;;7.05;1.90;;;;;;;;;;6277351;22;20144;-61
2021/12/21 00:51:42;;;;;;;5.43;1.90;;;;;;;;;;6277439;22;20142;-61
2021/12/21 00:54:08;;;;;;;8.40;1.75;;;;;;;;;;6277356;22;20144;-60
2021/12/21 00:56:33;;;;;;;8.52;1.88;;;;;;;;;;6277842;22;20173;-61
2021/12/21 00:58:59;;;;;;;6.90;2.17;;;;;;;;;;6276970;22;20174;-61
2021/12/21 01:01:25;;;;;;;5.03;2.25;;;;;;;;;;6276943;22;20150;-61
2021/12/21 01:03:54;;;;;;;9.40;2.65;;;;;;;;;;6277155;22;20247;-61
2021/12/21 01:06:39;;;;;;;6.43;2.15;;;;;;;;;;6277306;22;20560;-61
2021/12/21 01:09:13;;;;;;;5.38;2.00;;;;;;;;;;6277209;22;20158;-61
2021/12/21 01:11:48;;;;;;;6.50;2.20;;;;;;;;;;6276966;22;20214;-61
2021/12/21 01:17:49;;;;;;;5.80;2.08;;;;;;;;;;6276656;22;20166;-61
2021/12/21 01:20:02;;;;;;;8.02;1.80;;;;;;;;;;6260077;22;20151;-61
2021/12/21 01:23:04;;;;;;;9.07;2.33;;;;;;;;;;6276968;22;20432;-62
2021/12/21 01:25:46;;;;;;;7.05;2.28;;;;;;;;;;6276483;22;20151;-60
2021/12/21 01:28:39;;;;;;;7.50;2.05;;;;;;;;;;6277080;22;20132;-61
2021/12/21 01:31:27;;;;;;;3.47;1.83;;;;;;;;;;6276448;22;20493;-61
2021/12/21 01:36:28;;;;;;;3.72;1.58;;;;;;;;;;6276579;22;20196;-60
2021/12/21 01:41:29;;;;;;;9.93;2.33;;;;;;;;;;6276729;22;20552;-61
2021/12/21 01:51:59;;;;;;;5.72;2.00;;;;;;;;;;6275976;22;20205;-61
2021/12/21 01:54:26;;;;;;;4.85;2.03;;;;;;;;;;6276622;22;20147;-61
2021/12/21 01:56:52;;;;;;;10.02;2.38;;;;;;;;;;6276099;22;20166;-61
2021/12/21 01:59:18;;;;;;;5.22;2.30;;;;;;;;;;6276529;22;20212;-61
2021/12/21 02:01:45;;;;;;;8.50;2.20;;;;;;;;;;6276230;22;20450;-61
2021/12/21 02:04:15;;;;;;;5.15;2.35;;;;;;;;;;6276195;22;20146;-61
2021/12/21 02:06:41;;;;;;;7.18;2.42;;;;;;;;;;6276104;22;20401;-60
2021/12/21 02:09:07;;;;;;;6.22;2.47;;;;;;;;;;6275939;22;20449;-61
2021/12/21 02:11:34;;;;;;;6.03;2.33;;;;;;;;;;6276040;22;20488;-59
2021/12/21 02:14:00;;;;;;;4.80;2.30;;;;;;;;;;6276222;22;20159;-60
2021/12/21 02:16:35;;;;;;;8.48;2.47;;;;;;;;;;6276332;22;20148;-61
2021/12/21 02:19:16;;;;;;;6.50;2.17;;;;;;;;;;6276224;22;20187;-61
2021/12/21 02:21:45;;;;;;;8.40;2.85;;;;;;;;;;6276223;22;20141;-61
2021/12/21 02:24:16;;;;;;;11.02;2.42;;;;;;;;;;6275699;22;20163;-60
2021/12/21 02:27:17;;;;;;;8.73;2.72;;;;;;;;;;6276170;22;20134;-61
2021/12/21 02:29:33;;;;;;;5.65;2.60;;;;;;;;;;6274983;22;20147;-61
2021/12/21 02:31:59;;;;;;;6.18;2.10;;;;;;;;;;6276346;22;20159;-60
2021/12/21 02:34:25;;;;;;;8.77;2.67;;;;;;;;;;6276202;22;20140;-61
2021/12/21 02:36:52;;;;;;;7.50;3.30;;;;;;;;;;6276024;22;20214;-60
2021/12/21 02:39:18;;;;;;;13.50;2.83;;;;;;;;;;6276886;22;20154;-59
2021/12/21 02:41:44;;;;;;;8.38;2.80;;;;;;;;;;6276846;22;20135;-60
2021/12/21 02:44:11;;;;;;;5.43;2.22;;;;;;;;;;6276447;22;20140;-61
2021/12/21 02:46:39;;;;;;;9.00;2.50;;;;;;;;;;6276283;22;20215;-60
2021/12/21 02:49:05;;;;;;;6.95;2.47;;;;;;;;;;6276179;22;20144;-60
2021/12/21 02:51:31;;;;;;;7.50;2.78;;;;;;;;;;6276026;22;20144;-60
2021/12/21 02:53:57;;;;;;;13.85;3.17;;;;;;;;;;6276259;22;20568;-60
2021/12/21 02:56:23;;;;;;;12.93;2.88;;;;;;;;;;6276308;22;20215;-60
2021/12/21 02:58:49;;;;;;;9.02;2.40;;;;;;;;;;6277008;22;20168;-60
2021/12/21 03:01:15;;;;;;;7.07;2.75;;;;;;;;;;6276713;22;20147;-60
2021/12/21 03:03:41;;;;;;;8.93;3.33;;;;;;;;;;6276515;22;20166;-60
2021/12/21 03:06:13;;;;;;;7.70;3.22;;;;;;;;;;6278197;22;20493;-61
2021/12/21 03:08:44;;;;;;;7.82;2.80;;;;;;;;;;6278189;22;20554;-60
2021/12/21 03:11:18;;;;;;;7.88;3.22;;;;;;;;;;6278331;22;20124;-60
2021/12/21 03:16:28;;;;;;;8.00;3.10;;;;;;;;;;6277934;22;20550;-61
2021/12/21 03:18:56;;;;;;;7.95;3.05;;;;;;;;;;6277644;22;20175;-61
2021/12/21 03:21:22;;;;;;;9.35;2.70;;;;;;;;;;6278134;22;20139;-61
2021/12/21 03:23:48;;;;;;;8.63;2.63;;;;;;;;;;6277481;22;20164;-61
2021/12/21 03:26:14;;;;;;;6.63;2.42;;;;;;;;;;6277527;22;20539;-60
2021/12/21 03:28:40;;;;;;;7.45;2.80;;;;;;;;;;6277699;22;20158;-61
2021/12/21 03:31:06;;;;;;;6.05;2.78;;;;;;;;;;6277533;22;20153;-60
2021/12/21 03:33:32;;;;;;;11.70;3.05;;;;;;;;;;6277459;22;20155;-61
2021/12/21 03:36:00;;;;;;;8.70;2.70;;;;;;;;;;6277424;22;20197;-61
2021/12/21 03:38:27;;;;;;;6.47;2.47;;;;;;;;;;6277812;22;20177;-60
2021/12/21 03:40:54;;;;;;;5.85;2.92;;;;;;;;;;6277505;22;20214;-61
2021/12/21 03:43:20;;;;;;;8.45;3.15;;;;;;;;;;6277468;22;20135;-61
2021/12/21 03:45:56;;;;;;;6.13;2.63;;;;;;;;;;6278100;22;20150;-61
2021/12/21 03:48:22;;;;;;;6.93;3.03;;;;;;;;;;6278773;22;20131;-63
2021/12/21 03:50:48;;;;;;;8.68;3.42;;;;;;;;;;6278416;22;20136;-61
2021/12/21 03:53:13;;;;;;;8.13;3.13;;;;;;;;;;6277362;22;20159;-61
2021/12/21 03:55:39;;;;;;;6.93;2.85;;;;;;;;;;6277717;22;20140;-60
2021/12/21 03:58:05;;;;;;;6.93;3.60;;;;;;;;;;6277509;22;20194;-60
2021/12/21 04:00:31;;;;;;;10.10;3.38;;;;;;;;;;6277281;22;20144;-61
2021/12/21 04:02:57;;;;;;;7.68;3.47;;;;;;;;;;6277278;22;20136;-60
2021/12/21 04:05:23;;;;;;;10.15;3.28;;;;;;;;;;6277422;22;20150;-60
2021/12/21 04:07:55;;;;;;;5.72;3.47;;;;;;;;;;6277133;22;20159;-60
2021/12/21 04:10:21;;;;;;;10.38;3.28;;;;;;;;;;6277376;22;20140;-60
2021/12/21 04:12:47;;;;;;;8.38;3.35;;;;;;;;;;6277307;22;20425;-60
2021/12/21 04:15:16;;;;;;;6.93;3.28;;;;;;;;;;6277447;22;20627;-60
2021/12/21 04:17:42;;;;;;;8.63;3.00;;;;;;;;;;6277272;22;20225;-60
2021/12/21 04:20:08;;;;;;;9.70;3.17;;;;;;;;;;6277192;22;20540;-60
2021/12/21 04:22:34;;;;;;;8.52;3.58;;;;;;;;;;6277099;22;20487;-60
2021/12/21 04:25:00;;;;;;;9.48;3.50;;;;;;;;;;6277365;22;20527;-60
2021/12/21 04:27:26;;;;;;;8.57;4.15;;;;;;;;;;6277278;22;20193;-60
2021/12/21 04:29:52;;;;;;;8.98;3.80;;;;;;;;;;6276991;22;20144;-60
2021/12/21 04:32:18;;;;;;;7.38;3.72;;;;;;;;;;6276797;22;20151;-60
2021/12/21 04:34:44;;;;;;;9.18;4.00;;;;;;;;;;6277063;22;20208;-59
2021/12/21 04:37:10;;;;;;;5.28;3.05;;;;;;;;;;6277648;22;20148;-60
2021/12/21 04:40:02;;;;;;;9.93;3.38;;;;;;;;;;6277552;22;20139;-59
2021/12/21 04:42:25;;;;;;;7.40;3.45;;;;;;;;;;6276250;22;20148;-60
2021/12/21 04:44:51;;;;;;;10.02;4.13;;;;;;;;;;6277780;22;20204;-60
2021/12/21 04:47:17;;;;;;;10.70;3.70;;;;;;;;;;6277162;22;20173;-60
2021/12/21 04:49:43;;;;;;;8.93;3.85;;;;;;;;;;6277540;22;20576;-61
2021/12/21 04:52:09;;;;;;;7.50;3.88;;;;;;;;;;6277682;22;20150;-61
2021/12/21 04:54:36;;;;;;;9.88;3.95;;;;;;;;;;6277844;22;20177;-61
2021/12/21 04:57:02;;;;;;;8.00;3.35;;;;;;;;;;6277523;22;20148;-61
2021/12/21 04:59:28;;;;;;;14.88;3.53;;;;;;;;;;6277111;22;20552;-61
2021/12/21 05:01:54;;;;;;;9.32;3.88;;;;;;;;;;6277283;22;20136;-61
2021/12/21 05:04:20;;;;;;;7.35;3.97;;;;;;;;;;6277139;22;20144;-62
2021/12/21 05:06:46;;;;;;;8.30;3.58;;;;;;;;;;6276829;22;20194;-61
2021/12/21 05:09:22;;;;;;;9.90;3.90;;;;;;;;;;6276511;22;20139;-61
2021/12/21 05:11:48;;;;;;;8.70;3.88;;;;;;;;;;6277118;22;20147;-61
2021/12/21 05:14:14;;;;;;;9.10;3.63;;;;;;;;;;6276851;22;20155;-60
2021/12/21 05:16:40;;;;;;;7.68;3.72;;;;;;;;;;6277084;22;20143;-61
2021/12/21 05:19:06;;;;;;;10.43;4.65;;;;;;;;;;6276665;22;20175;-61
2021/12/21 05:21:32;;;;;;;10.05;3.80;;;;;;;;;;6276529;22;20215;-61
2021/12/21 05:23:58;;;;;;;11.90;3.70;;;;;;;;;;6276323;22;20728;-61
2021/12/21 05:26:24;;;;;;;9.15;3.50;;;;;;;;;;6276825;22;20144;-62
2021/12/21 05:28:50;;;;;;;8.25;3.40;;;;;;;;;;6276565;22;20193;-62
2021/12/21 05:31:16;;;;;;;10.00;3.58;;;;;;;;;;6276348;22;20144;-61
2021/12/21 05:33:42;;;;;;;10.90;3.30;;;;;;;;;;6276358;22;20200;-61
2021/12/21 05:36:08;;;;;;;6.35;3.13;;;;;;;;;;6276534;22;20188;-61
2021/12/21 05:38:35;;;;;;;14.88;4.03;;;;;;;;;;6276308;22;20718;-61
2021/12/21 05:41:04;;;;;;;8.13;2.70;;;;;;;;;;6276654;22;20216;-62
2021/12/21 05:43:30;;;;;;;12.38;4.07;;;;;;;;;;6276474;22;20148;-62
2021/12/21 05:45:56;;;;;;;8.50;3.25;;;;;;;;;;6276168;22;20202;-61
2021/12/21 05:48:22;;;;;;;8.38;3.65;;;;;;;;;;6276099;22;20150;-62
2021/12/21 05:50:48;;;;;;;9.80;4.07;;;;;;;;;;6276228;22;20143;-60
2021/12/21 05:53:14;;;;;;;9.85;3.28;;;;;;;;;;6276200;22;20209;-60
2021/12/21 05:55:40;;;;;;;5.22;2.70;;;;;;;;;;6276362;22;20143;-60
2021/12/21 05:58:06;;;;;;;6.28;2.83;;;;;;;;;;6275825;22;20252;-60
2021/12/21 06:00:33;;;;;;;8.00;2.40;;;;;;;;;;6276187;22;20146;-62
2021/12/21 06:02:59;;;;;;;10.73;2.60;;;;;;;;;;6276174;22;20143;-61
2021/12/21 06:05:26;;;;;;;7.55;3.00;;;;;;;;;;6276480;22;20145;-60
2021/12/21 06:07:53;;;;;;;11.23;3.63;;;;;;;;;;6276032;22;20211;-61
2021/12/21 06:10:28;;;;;;;7.18;2.70;;;;;;;;;;6276444;22;20209;-60
2021/12/21 06:26:12;;;;;;;5.03;2.45;;;;;;;;;;6277172;22;20182;-61
2021/12/21 06:28:38;;;;;;;6.95;2.92;;;;;;;;;;6275997;22;20434;-60
2021/12/21 06:31:04;;;;;;;9.68;3.17;;;;;;;;;;6276173;22;20586;-61
2021/12/21 06:33:30;;;;;;;9.15;3.03;;;;;;;;;;6276363;22;20143;-60
2021/12/21 06:35:57;;;;;;;6.80;3.75;;;;;;;;;;6276026;22;20151;-61
2021/12/21 06:38:23;;;;;;;7.65;2.90;;;;;;;;;;6275900;22;20661;-60
2021/12/21 06:40:49;;;;;;;8.68;3.20;;;;;;;;;;6278449;22;20165;-61
2021/12/21 06:43:16;;;;;;;8.05;3.00;;;;;;;;;;6278173;22;20472;-61
2021/12/21 06:51:11;;;;;;;8.90;3.10;;;;;;;;;;6278910;22;20208;-62
2021/12/21 06:53:39;;;;;;;7.43;2.90;;;;;;;;;;6279115;22;20142;-62
2021/12/21 06:56:05;;;;;;;7.20;3.13;;;;;;;;;;6278486;22;20146;-60
2021/12/21 06:58:32;;;;;;;8.73;2.85;;;;;;;;;;6278271;22;20206;-61
2021/12/21 07:00:58;;;;;;;8.82;2.88;;;;;;;;;;6278755;22;20555;-59
2021/12/21 07:03:24;;;;;;;5.63;2.63;;;;;;;;;;6278136;22;20144;-61
2021/12/21 07:05:51;;;;;;;10.88;2.92;;;;;;;;;;6278629;22;20223;-61
2021/12/21 07:08:22;;;;;;;9.32;2.88;;;;;;;;;;6278483;22;20158;-61
2021/12/21 07:10:56;;;;;;;9.00;3.05;;;;;;;;;;6278295;22;20130;-60
2021/12/21 07:18:51;;;;;;;6.85;2.85;;;;;;;;;;6277697;22;20174;-61
2021/12/21 07:21:17;;;;;;;12.88;3.15;;;;;;;;;;6277714;22;20167;-61
2021/12/21 07:23:43;;;;;;;5.90;2.97;;;;;;;;;;6277409;22;20221;-61
2021/12/21 07:26:09;;;;;;;5.72;2.63;;;;;;;;;;6277748;22;20139;-61
2021/12/21 07:28:35;;;;;;;6.68;2.55;;;;;;;;;;6278520;22;20619;-61
2021/12/21 07:31:01;;;;;;;7.25;2.90;;;;;;;;;;6278786;22;20247;-61
2021/12/21 07:33:28;;;;;;;7.55;2.47;;;;;;;;;;6278092;22;20139;-61
2021/12/21 07:35:54;;;;;;;7.05;2.90;;;;;;;;;;6277776;22;20162;-61
2021/12/21 07:38:22;;;;;;;11.50;3.05;;;;;;;;;;6277616;22;20522;-61
2021/12/21 07:40:48;;;;;;;7.53;2.67;;;;;;;;;;6277872;22;20162;-60
2021/12/21 07:43:14;;;;;;;10.18;3.00;;;;;;;;;;6278024;22;20595;-61
2021/12/21 07:45:40;;;;;;;6.47;2.80;;;;;;;;;;6277472;22;20417;-61
2021/12/21 07:48:06;;;;;;;8.32;2.63;;;;;;;;;;6278460;22;20147;-61
2021/12/21 07:50:32;;;;;;;9.10;2.42;;;;;;;;;;6277207;22;20654;-61
2021/12/21 07:53:00;;;;;;;5.80;2.33;;;;;;;;;;6278027;22;20443;-60
2021/12/21 07:55:26;;;;;;;8.52;2.72;;;;;;;;;;6277528;22;20148;-61
2021/12/21 07:57:52;;;;;;;8.35;3.88;;;;;;;;;;6277481;22;20186;-62
2021/12/21 08:00:19;;;;;;;7.80;3.60;;;;;;;;;;6277450;22;20218;-63
2021/12/21 08:02:45;;;;;;;7.90;4.10;;;;;;;;;;6277674;22;20169;-60
2021/12/21 08:05:11;;;;;;;7.65;3.83;;;;;;;;;;6277541;22;20190;-61
2021/12/21 08:07:52;;;;;;;11.77;4.43;;;;;;;;;;6277356;22;20144;-59
2021/12/21 08:10:40;;;;;;;8.55;3.80;;;;;;;;;;6277689;22;20528;-61
2021/12/21 08:13:07;;;;;;;9.25;3.45;;;;;;;;;;6277501;22;20154;-61
2021/12/21 08:15:32;;;;;;;7.18;4.20;;;;;;;;;;6277666;22;20222;-62
2021/12/21 08:17:59;;;;;;;7.95;3.20;;;;;;;;;;6277333;22;20503;-61
2021/12/21 08:20:27;;;;;;;8.23;3.65;;;;;;;;;;6277340;22;20528;-61
2021/12/21 08:22:53;;;;;;;10.02;3.63;;;;;;;;;;6277228;22;20463;-60
2021/12/21 08:25:24;;;;;;;6.85;2.95;;;;;;;;;;6277566;22;20140;-61
2021/12/21 08:27:50;;;;;;;6.00;2.55;;;;;;;;;;6277805;22;20357;-61
2021/12/21 08:30:16;;;;;;;7.07;2.83;;;;;;;;;;6277275;22;20548;-62
2021/12/21 08:32:42;;;;;;;5.38;3.10;;;;;;;;;;6277266;22;20150;-60
2021/12/21 08:35:08;;;;;;;8.65;3.03;;;;;;;;;;6277150;22;20144;-61
2021/12/21 08:37:35;;;;;;;6.65;2.22;;;;;;;;;;6277238;22;20199;-60
2021/12/21 08:40:02;;;;;;;4.88;2.20;;;;;;;;;;6277880;22;20635;-61
2021/12/21 08:42:28;;;;;;;6.28;2.75;;;;;;;;;;6277859;22;20144;-61
2021/12/21 08:44:54;;;;;;;6.07;2.70;;;;;;;;;;6278009;22;20209;-61
2021/12/21 08:47:21;;;;;;;12.20;3.58;;;;;;;;;;6277561;22;20150;-62
2021/12/21 08:49:49;;;;;;;12.05;4.05;;;;;;;;;;6277839;22;20151;-62
2021/12/21 08:52:15;;;;;;;8.00;4.10;;;;;;;;;;6277542;22;20440;-61
2021/12/21 08:54:41;;;;;;;3.55;1.92;;;;;;;;;;6277222;22;20135;-61
2021/12/21 08:57:07;;;;;;;10.98;3.63;;;;;;;;;;6277480;22;20193;-60
2021/12/21 08:59:33;;;;;;;6.47;2.42;;;;;;;;;;6277187;22;20139;-59
2021/12/21 09:01:59;;;;;;;10.80;3.13;;;;;;;;;;6277198;22;20143;-60
2021/12/21 09:04:25;;;;;;;5.60;2.30;;;;;;;;;;6276919;22;20148;-61
2021/12/21 09:06:50;;;;;;;8.88;2.35;;;;;;;;;;6277087;22;20226;-61
2021/12/21 09:09:16;;;;;;;5.40;2.50;;;;;;;;;;6277129;22;20147;-62
2021/12/21 09:11:45;;;;;;;4.68;2.50;;;;;;;;;;6277108;22;20144;-60
2021/12/21 09:14:11;;;;;;;5.88;2.38;;;;;;;;;;6276989;22;20433;-60
2021/12/21 09:16:37;;;;;;;11.32;4.15;;;;;;;;;;6277089;22;20143;-59
2021/12/21 09:19:03;;;;;;;8.57;3.50;;;;;;;;;;6276663;22;20221;-60
2021/12/21 09:21:30;;;;;;;8.80;4.70;;;;;;;;;;6276835;22;20183;-60
2021/12/21 09:23:56;;;;;;;5.13;3.20;;;;;;;;;;6276564;22;20166;-60
2021/12/21 09:26:22;;;;;;;9.93;4.60;;;;;;;;;;6276413;22;20139;-61
2021/12/21 09:28:48;;;;;;;10.30;4.50;;;;;;;;;;6276592;22;20227;-60
2021/12/21 09:31:14;;;;;;;8.70;4.05;;;;;;;;;;6276385;22;20559;-60
2021/12/21 09:33:40;;;;;;;7.88;2.95;;;;;;;;;;6276783;22;20497;-59
2021/12/21 09:36:06;;;;;;;7.60;3.83;;;;;;;;;;6276421;22;20139;-60
2021/12/21 09:38:32;;;;;;;8.02;3.63;;;;;;;;;;6276310;22;20163;-60
2021/12/21 09:40:58;;;;;;;11.27;4.70;;;;;;;;;;6276683;22;20171;-60
2021/12/21 09:43:24;;;;;;;6.70;3.75;;;;;;;;;;6276383;22;20139;-59
2021/12/21 09:45:50;;;;;;;8.10;4.05;;;;;;;;;;6276788;22;20140;-60
2021/12/21 09:48:16;;;;;;;8.63;3.55;;;;;;;;;;6276847;22;20144;-60
2021/12/21 09:50:42;;;;;;;7.22;3.67;;;;;;;;;;6276493;22;20165;-60
2021/12/21 09:53:08;;;;;;;7.18;4.15;;;;;;;;;;6276297;22;20559;-60
2021/12/21 09:55:34;;;;;;;9.05;4.18;;;;;;;;;;6276094;22;20182;-60
2021/12/21 09:58:00;;;;;;;12.55;4.60;;;;;;;;;;6276124;22;20199;-60
2021/12/21 10:00:32;;;;;;;9.77;4.10;;;;;;;;;;6276224;22;20136;-60
2021/12/21 10:03:03;;;;;;;9.13;4.43;;;;;;;;;;6276523;22;20144;-59
2021/12/21 10:05:30;;;;;;;9.00;4.00;;;;;;;;;;6276448;22;20134;-60
2021/12/21 10:07:57;;;;;;;9.73;4.32;;;;;;;;;;6276507;22;20226;-60
2021/12/21 10:10:23;;;;;;;7.60;4.47;;;;;;;;;;6276068;22;20718;-60
2021/12/21 10:12:49;;;;;;;10.07;4.65;;;;;;;;;;6275897;22;20147;-60
2021/12/21 10:15:15;;;;;;;10.38;3.88;;;;;;;;;;6276469;22;20194;-60
2021/12/21 10:17:51;;;;;;;8.70;4.68;;;;;;;;;;6276755;22;20606;-59
2021/12/21 10:20:30;;;;;;;10.07;4.80;;;;;;;;;;6276803;22;20144;-60
2021/12/21 10:22:56;;;;;;;7.60;4.22;;;;;;;;;;6276035;22;20162;-58
2021/12/21 10:25:24;;;;;;;12.05;4.80;;;;;;;;;;6276643;22;20159;-59
2021/12/21 10:27:50;;;;;;;10.93;4.75;;;;;;;;;;6276969;22;20147;-59
2021/12/21 10:30:16;;;;;;;8.15;4.78;;;;;;;;;;6276734;22;20439;-61
2021/12/21 10:32:49;;;;;;;9.40;5.03;;;;;;;;;;6249788;22;20518;-60
2021/12/21 10:35:15;;;;;;;9.50;5.13;;;;;;;;;;6276393;22;20435;-61
2021/12/21 10:37:42;;;;;;;9.50;5.63;;;;;;;;;;6276197;22;20250;-61
2021/12/21 10:40:24;;;;;;;7.68;4.97;;;;;;;;;;6276853;22;20446;-61
2021/12/21 10:42:50;;;;;;;10.23;5.25;;;;;;;;;;6276833;22;20193;-61
2021/12/21 10:45:16;;;;;;;6.72;4.50;;;;;;;;;;6277001;22;20140;-62
2021/12/21 10:47:47;;;;;;;9.27;5.25;;;;;;;;;;6276900;22;20150;-61
2021/12/21 10:50:14;;;;;;;10.32;4.75;;;;;;;;;;6276835;22;20152;-62
2021/12/21 10:52:41;;;;;;;9.98;4.10;;;;;;;;;;6276938;22;20159;-61
2021/12/21 10:55:07;;;;;;;8.90;3.83;;;;;;;;;;6276572;22;20577;-60
2021/12/21 10:57:34;;;;;;;9.70;4.10;;;;;;;;;;6276254;22;20258;-59
2021/12/21 11:00:03;;;;;;;8.10;3.58;;;;;;;;;;6276845;22;20201;-60
2021/12/21 11:02:32;;;;;;;8.63;3.30;;;;;;;;;;6276475;22;20155;-60
2021/12/21 11:05:09;;;;;;;6.82;3.38;;;;;;;;;;6276492;22;20159;-60
2021/12/21 11:07:42;;;;;;;7.25;2.85;;;;;;;;;;6276385;22;20158;-60
2021/12/21 11:10:14;;;;;;;3.33;2.10;;;;;;;;;;6276578;22;20159;-61
2021/12/21 11:12:47;;;;;;;5.60;2.50;;;;;;;;;;6276510;22;20224;-61
2021/12/21 11:15:14;;;;;;;6.97;2.30;;;;;;;;;;6276717;22;20143;-61
2021/12/21 11:17:40;;;;;;;3.25;2.00;;;;;;;;;;6275914;22;20587;-61
2021/12/21 11:20:07;;;;;;;5.43;1.98;;;;;;;;;;6276365;22;20144;-59
2021/12/21 11:22:35;;;;;;;4.63;1.40;;;;;;;;;;6275916;22;20143;-60
2021/12/21 11:25:01;;;;;;;4.45;1.85;;;;;;;;;;6276504;22;20186;-60
2021/12/21 11:27:29;;;;;;;5.70;2.05;;;;;;;;;;6277649;22;20152;-60
2021/12/21 11:29:57;;;;;;;5.30;1.95;;;;;;;;;;6278162;22;20136;-60
2021/12/21 11:32:24;;;;;;;6.05;2.25;;;;;;;;;;6277669;22;20147;-60
2021/12/21 11:37:47;;;;;;;4.47;1.70;;;;;;;;;;6169330;22;20621;-60
2021/12/21 11:40:14;;;;;;;3.85;1.60;;;;;;;;;;6279138;22;20135;-60
2021/12/21 11:42:53;;;;;;;3.08;1.70;;;;;;;;;;6278383;22;20439;-58
2021/12/21 11:45:22;;;;;;;4.65;1.98;;;;;;;;;;6277877;22;20193;-61
2021/12/21 11:47:52;;;;;;;3.67;1.75;;;;;;;;;;6277347;22;20560;-60
2021/12/21 11:50:18;;;;;;;2.83;1.80;;;;;;;;;;6278099;22;20147;-60
2021/12/21 11:52:46;;;;;;;5.45;1.90;;;;;;;;;;6277615;22;20508;-60
2021/12/21 11:55:14;;;;;;;5.57;2.08;;;;;;;;;;6277558;22;20308;-60
2021/12/21 11:57:48;;;;;;;2.47;1.42;;;;;;;;;;6277756;22;20318;-60
2021/12/21 12:00:19;;;;;;;3.30;1.60;;;;;;;;;;6277358;22;20191;-60
2021/12/21 12:02:46;;;;;;;3.97;1.40;;;;;;;;;;6277684;22;20194;-61
2021/12/21 12:05:26;;;;;;;3.70;1.42;;;;;;;;;;6277324;22;20495;-60
2021/12/21 12:08:03;;;;;;;4.53;1.30;;;;;;;;;;6277120;22;20201;-60
2021/12/21 12:10:29;;;;;;;3.75;1.48;;;;;;;;;;6277176;22;20139;-60
2021/12/21 12:12:55;;;;;;;2.78;1.30;;;;;;;;;;6277393;22;20212;-60
2021/12/21 12:15:21;;;;;;;3.80;1.90;;;;;;;;;;6277133;22;20150;-60
2021/12/21 12:17:48;;;;;;;5.72;2.05;;;;;;;;;;6276943;22;20163;-60
2021/12/21 12:20:15;;;;;;;4.93;1.90;;;;;;;;;;6277212;22;20147;-60
2021/12/21 12:22:43;;;;;;;4.05;1.60;;;;;;;;;;6277188;22;20159;-60
2021/12/21 12:25:16;;;;;;;4.22;2.10;;;;;;;;;;6277324;22;20185;-60
2021/12/21 12:27:46;;;;;;;7.05;3.55;;;;;;;;;;6277368;22;20192;-60
2021/12/21 12:30:14;;;;;;;7.10;4.85;;;;;;;;;;6277131;22;20273;-60
2021/12/21 12:32:41;;;;;;;7.60;5.15;;;;;;;;;;6277154;22;20143;-60
2021/12/21 12:35:08;;;;;;;9.73;5.68;;;;;;;;;;6277549;22;20162;-60
2021/12/21 12:37:46;;;;;;;10.07;5.85;;;;;;;;;;6276948;22;20171;-60
2021/12/21 12:40:14;;;;;;;11.65;5.82;;;;;;;;;;6277444;22;20435;-60
2021/12/21 12:42:40;;;;;;;9.63;6.20;;;;;;;;;;6277643;22;20153;-60
2021/12/21 12:45:09;;;;;;;8.60;5.88;;;;;;;;;;6277983;22;20167;-60
2021/12/21 12:47:37;;;;;;;10.68;6.07;;;;;;;;;;6277787;22;20140;-60
2021/12/21 12:50:13;;;;;;;9.10;5.88;;;;;;;;;;6277803;22;20152;-60
2021/12/21 12:52:48;;;;;;;9.35;6.53;;;;;;;;;;6277355;22;20439;-60
2021/12/21 12:55:14;;;;;;;9.07;6.57;;;;;;;;;;6277206;22;20131;-60
2021/12/21 12:57:49;;;;;;;10.38;7.15;;;;;;;;;;6277058;22;20178;-61
2021/12/21 13:00:21;;;;;;;16.77;8.65;;;;;;;;;;6277234;22;20124;-60
2021/12/21 13:02:56;;;;;;;13.68;9.20;;;;;;;;;;6277292;22;20189;-58
2021/12/21 13:05:25;;;;;;;14.57;9.25;;;;;;;;;;6276973;22;20146;-58
2021/12/21 13:07:51;;;;;;;14.85;7.97;;;;;;;;;;6277392;22;20159;-61
2021/12/21 13:10:17;;;;;;;11.80;7.95;;;;;;;;;;6277006;22;20611;-60
2021/12/21 13:12:43;;;;;;;10.73;7.22;;;;;;;;;;6276536;22;20453;-60
2021/12/21 13:15:09;;;;;;;13.43;7.32;;;;;;;;;;6276774;22;20144;-60
2021/12/21 13:17:35;;;;;;;10.25;7.25;;;;;;;;;;6276929;22;20186;-60
2021/12/21 13:20:01;;;;;;;11.25;7.45;;;;;;;;;;6276987;22;20143;-60
2021/12/21 13:22:28;;;;;;;8.80;6.40;;;;;;;;;;6277356;22;20140;-58
2021/12/21 13:24:54;;;;;;;10.25;6.35;;;;;;;;;;6276589;22;20148;-60
2021/12/21 13:27:24;;;;;;;9.60;6.32;;;;;;;;;;6277021;22;20421;-59
2021/12/21 13:29:50;;;;;;;8.27;5.38;;;;;;;;;;6276445;22;20556;-59
2021/12/21 13:32:18;;;;;;;10.32;6.20;;;;;;;;;;6277038;22;20171;-59
2021/12/21 13:34:45;;;;;;;11.13;5.40;;;;;;;;;;6276519;22;20540;-59
2021/12/21 13:37:13;;;;;;;8.25;5.18;;;;;;;;;;6276741;22;20139;-60
2021/12/21 13:39:41;;;;;;;4.97;2.63;;;;;;;;;;6276578;22;20189;-60
2021/12/21 13:42:07;;;;;;;5.55;2.25;;;;;;;;;;6276610;22;20143;-59
2021/12/21 13:44:36;;;;;;;4.18;1.58;;;;;;;;;;6276784;22;20171;-60
2021/12/21 13:47:15;;;;;;;5.45;1.35;;;;;;;;;;6276378;22;20167;-60
2021/12/21 13:50:00;;;;;;;4.85;1.50;;;;;;;;;;6276248;22;20539;-60
2021/12/21 13:52:30;;;;;;;4.72;1.23;;;;;;;;;;6276364;22;20567;-60
2021/12/21 13:54:56;;;;;;;5.03;1.23;;;;;;;;;;6276442;22;20144;-60
2021/12/21 13:57:23;;;;;;;4.40;1.05;;;;;;;;;;6276828;22;20548;-59
2021/12/21 13:59:50;;;;;;;6.45;1.48;;;;;;;;;;6276616;22;20205;-59
2021/12/21 14:02:25;;;;;;;2.72;1.10;;;;;;;;;;6276873;22;20147;-60
2021/12/21 14:05:00;;;;;;;3.83;1.25;;;;;;;;;;6277107;22;20141;-60
2021/12/21 14:07:27;;;;;;;4.75;1.20;;;;;;;;;;6276251;22;20130;-60
2021/12/21 14:10:04;;;;;;;3.30;1.30;;;;;;;;;;6275949;22;20167;-60
2021/12/21 14:12:30;;;;;;;5.03;1.00;;;;;;;;;;6276131;22;20210;-60
2021/12/21 14:14:56;;;;;;;8.00;1.38;;;;;;;;;;6275989;22;20179;-60
2021/12/21 14:17:25;;;;;;;4.15;1.17;;;;;;;;;;6276007;22;20469;-59
2021/12/21 14:19:55;;;;;;;2.72;1.10;;;;;;;;;;6276225;22;20249;-59
2021/12/21 14:22:21;;;;;;;2.83;1.50;;;;;;;;;;6276096;22;20139;-58
2021/12/21 14:24:49;;;;;;;3.30;1.38;;;;;;;;;;6276101;22;20247;-60
2021/12/21 14:27:15;;;;;;;4.00;1.30;;;;;;;;;;6276698;22;20171;-59
2021/12/21 14:29:43;;;;;;;6.10;1.55;;;;;;;;;;6276255;22;20147;-60
2021/12/21 14:34:40;;;;;;;4.72;1.55;;;;;;;;;;6276379;22;20144;-57
2021/12/21 14:37:07;;;;;;;2.75;1.05;;;;;;;;;;6276699;22;20440;-61
2021/12/21 14:39:33;;;;;;;5.75;1.90;;;;;;;;;;6276445;22;20174;-60
2021/12/21 14:42:01;;;;;;;3.35;1.67;;;;;;;;;;6276527;22;20266;-60
2021/12/21 14:44:28;;;;;;;6.13;1.40;;;;;;;;;;6276903;22;20140;-58
2021/12/21 14:47:01;;;;;;;4.78;1.60;;;;;;;;;;6276853;22;20209;-59
2021/12/21 14:49:35;;;;;;;4.47;1.48;;;;;;;;;;6276847;22;20235;-60
2021/12/21 14:52:08;;;;;;;4.20;1.73;;;;;;;;;;6276960;22;20205;-59
2021/12/21 14:54:52;;;;;;;6.05;2.05;;;;;;;;;;6276689;22;20159;-61
2021/12/21 14:57:37;;;;;;;4.28;2.60;;;;;;;;;;6276185;22;20525;-61
2021/12/21 15:00:29;;;;;;;7.57;2.83;;;;;;;;;;6276440;22;20150;-59
2021/12/21 15:02:56;;;;;;;8.23;3.35;;;;;;;;;;6272706;22;20152;-60
2021/12/21 15:05:24;;;;;;;7.13;3.20;;;;;;;;;;6277982;22;20224;-60
2021/12/21 15:07:50;;;;;;;4.18;2.65;;;;;;;;;;6278623;22;20154;-60
2021/12/21 15:10:17;;;;;;;7.50;3.45;;;;;;;;;;6278286;22;20270;-60
2021/12/21 15:12:44;;;;;;;9.20;4.00;;;;;;;;;;6278323;22;20144;-59
2021/12/21 15:15:10;;;;;;;5.25;3.15;;;;;;;;;;6277988;22;20218;-58
2021/12/21 15:17:36;;;;;;;5.63;3.28;;;;;;;;;;6277966;22;20529;-61
2021/12/21 15:20:04;;;;;;;8.13;3.28;;;;;;;;;;6278037;22;20139;-59
2021/12/21 15:22:30;;;;;;;7.43;4.15;;;;;;;;;;6277604;22;20140;-59
2021/12/21 15:24:56;;;;;;;6.70;4.40;;;;;;;;;;6277487;22;20152;-61
2021/12/21 15:27:21;;;;;;;8.50;4.95;;;;;;;;;;6277159;22;20150;-59
2021/12/21 15:29:47;;;;;;;9.55;5.68;;;;;;;;;;6277241;22;20249;-61
2021/12/21 15:32:15;;;;;;;11.75;6.55;;;;;;;;;;6277369;22;20199;-60
2021/12/21 15:34:41;;;;;;;10.48;6.47;;;;;;;;;;6277849;22;20225;-61
2021/12/21 15:37:07;;;;;;;15.07;7.53;;;;;;;;;;6277782;22;20570;-60
2021/12/21 15:39:33;;;;;;;14.43;7.57;;;;;;;;;;6277265;22;20163;-60
2021/12/21 15:42:04;;;;;;;13.90;8.50;;;;;;;;;;6277985;22;20213;-60